CPX448 Details

Departure: Minneapolis-St Paul International Airport (KMSP)
Arrival: Salt Lake City International Airport (KSLC)
Route: LEINY6 LEINY RAP DDY NORDK6


Current Weather Information
KMSP 212153Z 11024G33KT 9SM -RA OVC055 13/03 A2989 RMK AO2 PK WND 10036/2133 RAB48 SLP125 P0000 T01330033
KSLC 212154Z 29011KT 9SM -RA BKN019 OVC027 07/04 A2965 RMK AO2 SLP024 P0010 T00670044 VISNO NW RNWY